Time;durP1;ratioP1;P1;durP2;ratioP2;P2;SDS_P1;SDS_P2;PMS_P1;PMS_P2;Temp;Humidity;BMP_temperature;BMP_pressure;BME280_temperature;BME280_humidity;BME280_pressure;Samples;Min_cycle;Max_cycle;Signal;HPM_P1;HPM_P2
2021/01/14 00:00:36;;;;;;;0.43;0.20;;;;;;;12.61;75.60;100704.66;5012259;28;20041;-83
2021/01/14 00:03:10;;;;;;;1.45;0.20;;;;;;;12.64;75.00;100704.44;5013501;28;20026;-83
2021/01/14 00:05:37;;;;;;;0.88;0.20;;;;;;;12.81;74.67;100700.56;5013566;28;20022;-83
2021/01/14 00:08:04;;;;;;;1.55;0.20;;;;;;;12.78;74.57;100699.00;5013446;28;20032;-83
2021/01/14 00:10:30;;;;;;;0.57;0.30;;;;;;;12.78;74.94;100687.63;5016052;28;20048;-83
2021/01/14 00:12:55;;;;;;;0.47;0.28;;;;;;;12.89;74.25;100698.22;5013113;28;20026;-83
2021/01/14 00:15:21;;;;;;;0.55;0.20;;;;;;;12.85;74.13;100688.84;5013050;28;20022;-83
2021/01/14 00:17:46;;;;;;;0.40;0.17;;;;;;;12.67;74.97;100686.59;5011895;28;20030;-83
2021/01/14 00:20:15;;;;;;;0.73;0.20;;;;;;;12.91;73.49;100683.13;5028532;28;20118;-83
2021/01/14 00:22:40;;;;;;;0.30;0.25;;;;;;;12.52;75.32;100681.59;5032751;28;20039;-83
2021/01/14 00:25:08;;;;;;;2.55;0.30;;;;;;;12.80;74.71;100675.19;5030845;28;20022;-83
2021/01/14 00:27:34;;;;;;;1.08;0.20;;;;;;;12.88;74.00;100676.31;5013066;28;20033;-83
2021/01/14 00:29:59;;;;;;;0.20;0.10;;;;;;;12.72;74.72;100669.63;5012793;28;20030;-83
2021/01/14 00:32:25;;;;;;;0.60;0.20;;;;;;;12.83;74.76;100664.41;5013153;28;20554;-83
2021/01/14 00:34:50;;;;;;;0.60;0.20;;;;;;;12.60;75.17;100660.81;5012872;28;20022;-83
2021/01/14 00:39:59;;;;;;;0.22;0.10;;;;;;;12.96;74.46;100657.28;5015142;28;20099;-83
2021/01/14 00:42:24;;;;;;;1.15;0.57;;;;;;;13.00;73.91;100653.47;5032169;28;20033;-83
2021/01/14 00:44:50;;;;;;;0.10;0.10;;;;;;;12.83;74.36;100657.34;5032187;28;20025;-83
2021/01/14 00:47:15;;;;;;;0.13;0.13;;;;;;;12.89;74.32;100653.41;5032255;28;20476;-83
2021/01/14 00:49:41;;;;;;;1.00;0.30;;;;;;;12.80;74.68;100649.69;5018354;28;20030;-83
2021/01/14 00:52:09;;;;;;;0.20;0.20;;;;;;;12.74;75.60;100647.50;5012591;28;20026;-83
2021/01/14 00:54:35;;;;;;;0.30;0.30;;;;;;;12.65;75.60;100642.88;5012431;28;20030;-83
2021/01/14 00:57:00;;;;;;;1.60;0.40;;;;;;;12.50;75.99;100635.16;5031344;28;20121;-83
2021/01/14 00:59:25;;;;;;;0.10;0.10;;;;;;;13.01;73.81;100638.50;5032176;28;20117;-82
2021/01/14 01:01:51;;;;;;;0.10;0.10;;;;;;;12.88;74.42;100635.94;5032233;28;20018;-83
2021/01/14 01:04:16;;;;;;;2.13;0.32;;;;;;;12.92;74.72;100628.66;5032332;28;20482;-83
2021/01/14 01:06:41;;;;;;;0.68;0.20;;;;;;;13.03;74.11;100632.16;5032169;28;20021;-83
2021/01/14 01:09:09;;;;;;;0.10;0.10;;;;;;;12.95;73.85;100628.41;5032101;28;20155;-82
2021/01/14 01:11:35;;;;;;;5.50;0.50;;;;;;;12.44;76.91;100618.94;5014604;28;20405;-82
2021/01/14 01:14:02;;;;;;;21.13;0.77;;;;;;;12.96;74.81;100619.56;5012354;28;20103;-82
2021/01/14 01:16:27;;;;;;;0.22;0.20;;;;;;;13.01;74.22;100614.75;5012074;28;20026;-82
2021/01/14 01:18:52;;;;;;;0.45;0.20;;;;;;;12.70;75.57;100599.44;5012192;28;20038;-82
2021/01/14 01:21:18;;;;;;;0.13;0.10;;;;;;;12.97;74.60;100600.13;5012155;28;20102;-82
2021/01/14 01:23:43;;;;;;;0.20;0.20;;;;;;;13.05;74.24;100603.91;5012112;28;20022;-82
2021/01/14 01:26:19;;;;;;;0.88;0.20;;;;;;;12.92;75.27;100602.28;5027579;28;20460;-82
2021/01/14 01:28:46;;;;;;;0.75;0.40;;;;;;;13.03;74.33;100595.28;5032042;28;20507;-82
2021/01/14 01:31:12;;;;;;;0.17;0.17;;;;;;;13.13;74.44;100594.56;5031878;28;20466;-82
2021/01/14 01:33:38;;;;;;;0.32;0.20;;;;;;;13.02;74.48;100592.75;5031785;28;20107;-82
2021/01/14 01:36:05;;;;;;;0.20;0.10;;;;;;;12.97;74.60;100579.88;5031722;28;20037;-82
2021/01/14 01:38:30;;;;;;;0.52;0.20;;;;;;;13.09;74.72;100584.25;5031473;28;20029;-82
2021/01/14 01:40:57;;;;;;;1.58;0.57;;;;;;;13.29;73.56;100569.59;5015506;28;20033;-82
2021/01/14 01:43:23;;;;;;;0.32;0.20;;;;;;;13.34;73.52;100574.50;5011845;28;20380;-82
2021/01/14 01:45:49;;;;;;;0.28;0.10;;;;;;;13.49;72.78;100570.69;5011997;28;20030;-82
2021/01/14 01:48:16;;;;;;;0.52;0.15;;;;;;;13.51;72.73;100562.66;5011893;28;20113;-82
2021/01/14 01:50:43;;;;;;;0.38;0.10;;;;;;;13.52;72.84;100563.47;5011901;28;20033;-82
2021/01/14 01:53:10;;;;;;;0.52;0.10;;;;;;;13.09;74.42;100560.53;5011889;28;20071;-82
2021/01/14 01:55:36;;;;;;;0.70;0.10;;;;;;;13.19;74.03;100562.44;5026705;28;20108;-82
2021/01/14 01:58:01;;;;;;;0.50;0.17;;;;;;;13.08;74.36;100558.00;5031568;28;20457;-82
2021/01/14 02:00:26;;;;;;;1.33;0.22;;;;;;;12.87;75.15;100553.41;5032339;28;20035;-82
2021/01/14 02:02:52;;;;;;;0.20;0.10;;;;;;;12.68;76.20;100551.31;5035464;28;20049;-82
2021/01/14 02:05:18;;;;;;;0.40;0.20;;;;;;;12.95;75.37;100551.97;5035432;28;20024;-82
2021/01/14 02:07:49;;;;;;;1.55;0.20;;;;;;;13.03;74.60;100555.72;5035450;28;20083;-82
2021/01/14 02:10:17;;;;;;;1.08;0.30;;;;;;;12.94;74.82;100543.25;5049842;28;20055;-82
2021/01/14 02:13:28;;;;;;;1.17;0.20;;;;;;;13.01;74.26;100543.59;5055292;28;20081;-82
2021/01/14 02:15:57;;;;;;;2.05;0.30;;;;;;;12.92;74.73;100534.59;5048445;28;20368;-82
2021/01/14 02:18:24;;;;;;;3.75;1.10;;;;;;;12.60;76.01;100532.59;5055105;28;20029;-82
2021/01/14 02:20:50;;;;;;;0.63;0.40;;;;;;;12.79;75.25;100536.47;5055169;28;20025;-82
2021/01/14 02:23:29;;;;;;;0.38;0.20;;;;;;;12.73;75.67;100529.03;5053840;28;20032;-82
2021/01/14 02:26:09;;;;;;;0.57;0.40;;;;;;;12.84;74.85;100531.72;5035038;28;20029;-82
2021/01/14 02:28:37;;;;;;;0.22;0.20;;;;;;;12.89;74.90;100530.41;5035428;28;20026;-82
2021/01/14 02:31:03;;;;;;;1.38;0.35;;;;;;;12.93;74.92;100524.91;5035049;28;20026;-82
2021/01/14 02:33:29;;;;;;;0.20;0.20;;;;;;;12.89;75.04;100519.00;5035042;28;20045;-82
2021/01/14 02:35:54;;;;;;;1.55;0.20;;;;;;;12.96;74.56;100517.59;5035196;28;20068;-82
2021/01/14 02:38:19;;;;;;;0.30;0.10;;;;;;;12.96;75.22;100514.97;5031678;28;20121;-82
2021/01/14 02:40:45;;;;;;;0.10;0.10;;;;;;;13.09;74.15;100523.63;5015106;28;20088;-82
2021/01/14 02:43:10;;;;;;;0.25;0.20;;;;;;;13.05;74.35;100516.91;5015071;28;20045;-82
2021/01/14 02:45:35;;;;;;;0.73;0.30;;;;;;;13.00;74.40;100507.66;5015124;28;20025;-82
2021/01/14 02:48:03;;;;;;;1.48;0.22;;;;;;;12.85;75.24;100499.13;5014865;28;20026;-82
2021/01/14 02:50:30;;;;;;;0.20;0.20;;;;;;;12.91;75.35;100506.56;5014861;28;20384;-82
2021/01/14 02:52:59;;;;;;;0.95;0.30;;;;;;;13.03;75.19;100503.00;5016361;28;20084;-82
2021/01/14 02:55:25;;;;;;;0.50;0.47;;;;;;;12.81;75.49;100500.31;5034390;28;20028;-82
2021/01/14 02:57:51;;;;;;;0.30;0.30;;;;;;;12.88;75.42;100496.28;5034532;28;20598;-82
2021/01/14 03:00:17;;;;;;;1.10;0.22;;;;;;;12.77;75.79;100490.97;5034593;28;20120;-82
2021/01/14 03:02:42;;;;;;;0.77;0.20;;;;;;;12.97;75.28;100482.38;5034342;28;20027;-82
2021/01/14 03:05:08;;;;;;;2.10;0.75;;;;;;;12.60;76.31;100481.69;5034466;28;20025;-82
2021/01/14 03:07:33;;;;;;;0.20;0.20;;;;;;;13.08;74.89;100482.38;5033169;28;20021;-82
2021/01/14 03:09:58;;;;;;;0.30;0.30;;;;;;;13.09;74.47;100476.16;5014415;28;20476;-82
2021/01/14 03:12:24;;;;;;;3.22;0.43;;;;;;;12.88;75.11;100483.09;5013984;28;20421;-82
2021/01/14 03:14:49;;;;;;;0.75;0.47;;;;;;;12.89;75.13;100475.06;5014589;28;20445;-82
2021/01/14 03:17:15;;;;;;;0.60;0.50;;;;;;;12.98;74.78;100470.88;5014310;28;20030;-82
2021/01/14 03:19:40;;;;;;;0.50;0.50;;;;;;;13.02;75.08;100472.31;5014179;28;20053;-82
2021/01/14 03:22:05;;;;;;;0.73;0.73;;;;;;;12.65;76.96;100469.84;5014306;28;20025;-82
2021/01/14 03:24:31;;;;;;;0.77;0.70;;;;;;;13.02;75.52;100472.31;5032715;28;20032;-82
2021/01/14 03:26:56;;;;;;;0.65;0.45;;;;;;;13.17;74.71;100470.31;5033058;28;20120;-82
2021/01/14 03:29:21;;;;;;;0.70;0.70;;;;;;;13.09;74.65;100468.25;5034171;28;20029;-82
2021/01/14 03:31:47;;;;;;;0.40;0.40;;;;;;;13.20;74.91;100458.69;5034030;28;20018;-82
2021/01/14 03:34:12;;;;;;;0.73;0.65;;;;;;;12.97;75.43;100458.66;5033870;28;20025;-82
2021/01/14 03:36:56;;;;;;;1.20;0.70;;;;;;;13.04;75.33;100453.75;5033812;28;20523;-82
2021/01/14 03:39:23;;;;;;;0.55;0.55;;;;;;;13.15;75.20;100451.13;5014134;28;20052;-82
2021/01/14 03:41:49;;;;;;;0.50;0.50;;;;;;;13.23;74.53;100453.16;5015021;28;20111;-82
2021/01/14 03:44:14;;;;;;;0.45;0.45;;;;;;;13.12;75.02;100450.53;5013937;28;20076;-82
2021/01/14 03:46:39;;;;;;;0.30;0.30;;;;;;;12.99;75.11;100442.72;5013782;28;20022;-82
2021/01/14 03:49:05;;;;;;;0.50;0.40;;;;;;;13.06;75.44;100444.78;5013804;28;20026;-82
2021/01/14 03:51:30;;;;;;;0.60;0.50;;;;;;;12.83;75.96;100440.44;5013763;28;20026;-82
2021/01/14 03:53:55;;;;;;;0.50;0.50;;;;;;;12.66;77.06;100437.31;5028945;28;20112;-82
2021/01/14 03:56:20;;;;;;;0.65;0.50;;;;;;;13.09;75.27;100433.13;5033563;28;20108;-82
2021/01/14 03:58:46;;;;;;;0.55;0.55;;;;;;;12.81;76.34;100430.00;5033206;28;20112;-82
2021/01/14 04:01:11;;;;;;;0.60;0.60;;;;;;;13.16;74.38;100428.25;5033271;28;20025;-82
2021/01/14 04:03:43;;;;;;;2.35;0.60;;;;;;;13.01;75.77;100425.84;5033303;28;20068;-82
2021/01/14 04:06:10;;;;;;;0.73;0.50;;;;;;;13.28;74.31;100414.91;5033110;28;20104;-82
2021/01/14 04:08:35;;;;;;;0.60;0.60;;;;;;;13.38;74.37;100409.78;5018102;28;20393;-82
2021/01/14 04:11:02;;;;;;;0.50;0.50;;;;;;;13.49;73.68;100407.13;5013190;28;20072;-82
2021/01/14 04:13:28;;;;;;;0.60;0.57;;;;;;;13.41;73.88;100406.91;5024806;28;20029;-82
2021/01/14 04:15:53;;;;;;;0.80;0.70;;;;;;;13.46;73.88;100398.63;5033155;28;20111;-82
2021/01/14 04:18:19;;;;;;;0.47;0.47;;;;;;;13.40;73.65;100405.22;5032945;28;20044;-82
2021/01/14 04:20:44;;;;;;;0.70;0.70;;;;;;;13.40;73.93;100389.41;5032764;28;20601;-82
2021/01/14 04:23:10;;;;;;;0.80;0.50;;;;;;;13.47;73.70;100395.03;5020883;28;20044;-82
2021/01/14 04:25:35;;;;;;;0.50;0.50;;;;;;;13.46;73.78;100388.06;5013089;28;20022;-82
2021/01/14 04:28:01;;;;;;;1.20;0.60;;;;;;;13.37;74.23;100384.38;5013512;28;20061;-82
2021/01/14 04:30:31;;;;;;;0.75;0.43;;;;;;;13.47;74.03;100387.13;5013103;28;20473;-82
2021/01/14 04:33:10;;;;;;;1.00;0.57;;;;;;;13.53;73.75;100388.44;5013049;28;20014;-82
2021/01/14 04:35:51;;;;;;;1.00;0.85;;;;;;;13.41;73.92;100377.06;5012983;28;20519;-82
2021/01/14 04:38:18;;;;;;;0.47;0.47;;;;;;;13.34;74.37;100365.34;5026284;28;20455;-82
2021/01/14 04:40:44;;;;;;;0.70;0.50;;;;;;;13.38;74.15;100364.94;5032471;28;20442;-82
2021/01/14 04:43:11;;;;;;;0.75;0.50;;;;;;;13.40;73.79;100363.03;5032548;28;20021;-82
2021/01/14 04:45:41;;;;;;;3.05;0.40;;;;;;;13.62;73.30;100363.94;5032584;28;20541;-82
2021/01/14 04:48:10;;;;;;;0.60;0.60;;;;;;;13.49;73.71;100359.66;5032326;28;20121;-82
2021/01/14 04:50:36;;;;;;;0.52;0.40;;;;;;;13.40;73.90;100354.28;5032314;28;20030;-82
2021/01/14 04:53:04;;;;;;;0.40;0.40;;;;;;;13.15;74.45;100356.22;5018586;28;20030;-82
2021/01/14 04:55:42;;;;;;;0.60;0.60;;;;;;;13.34;74.46;100350.34;5012661;28;20034;-83
2021/01/14 04:58:14;;;;;;;0.80;0.65;;;;;;;13.35;74.54;100344.13;5012459;28;20045;-82
2021/01/14 05:00:51;;;;;;;0.63;0.63;;;;;;;13.48;73.89;100339.50;5012527;28;20029;-82
2021/01/14 05:03:27;;;;;;;1.13;0.57;;;;;;;13.35;74.27;100338.84;5012495;28;20026;-82
2021/01/14 05:05:54;;;;;;;0.63;0.63;;;;;;;13.49;74.08;100337.72;5012526;28;20033;-82
2021/01/14 05:08:26;;;;;;;0.50;0.40;;;;;;;13.39;74.19;100326.22;5030109;28;20032;-82
2021/01/14 05:10:52;;;;;;;0.30;0.30;;;;;;;13.51;73.87;100332.31;5032625;28;20021;-82
2021/01/14 05:13:18;;;;;;;0.65;0.52;;;;;;;13.58;73.81;100331.69;5032039;28;20022;-82
2021/01/14 05:15:43;;;;;;;0.50;0.50;;;;;;;13.42;74.10;100329.44;5032039;28;20104;-82
2021/01/14 05:18:09;;;;;;;0.45;0.40;;;;;;;13.52;73.77;100320.81;5032028;28;20037;-82
2021/01/14 05:20:34;;;;;;;1.05;0.65;;;;;;;13.48;73.54;100315.75;5032038;28;20036;-82
2021/01/14 05:23:04;;;;;;;1.58;0.60;;;;;;;13.62;73.41;100321.72;5026939;28;20531;-82
2021/01/14 05:25:30;;;;;;;1.35;0.35;;;;;;;13.57;73.48;100331.81;5031924;28;20030;-83
2021/01/14 05:28:13;;;;;;;0.40;0.40;;;;;;;13.65;73.52;100321.47;5032455;28;20021;-83
2021/01/14 05:30:40;;;;;;;0.45;0.43;;;;;;;13.62;73.64;100321.72;5031828;28;20021;-83
2021/01/14 05:33:12;;;;;;;0.60;0.40;;;;;;;13.61;73.66;100314.78;5032252;28;20033;-83
2021/01/14 05:35:47;;;;;;;0.30;0.30;;;;;;;13.46;74.38;100308.94;5031730;28;20065;-83
2021/01/14 05:38:22;;;;;;;3.00;0.43;;;;;;;13.44;74.10;100313.50;5050408;28;20037;-83
2021/01/14 05:41:11;;;;;;;0.30;0.30;;;;;;;13.55;73.85;100315.28;5051556;28;20025;-83
2021/01/14 05:43:46;;;;;;;1.02;0.28;;;;;;;13.52;73.54;100310.25;5051590;28;20491;-83
2021/01/14 05:46:17;;;;;;;0.30;0.30;;;;;;;13.53;73.65;100310.13;5051594;28;20017;-83
2021/01/14 05:48:44;;;;;;;0.30;0.28;;;;;;;13.60;73.51;100300.72;5051919;28;20025;-83
2021/01/14 05:51:18;;;;;;;0.38;0.38;;;;;;;13.59;73.61;100295.59;5046342;28;20021;-83
2021/01/14 05:54:04;;;;;;;0.50;0.40;;;;;;;13.60;73.31;100297.25;5031710;28;20475;-83
2021/01/14 05:56:46;;;;;;;0.88;0.60;;;;;;;13.65;73.51;100293.28;5031719;28;20033;-83
2021/01/14 05:59:13;;;;;;;0.20;0.20;;;;;;;13.47;73.93;100297.44;5030399;28;20483;-83
2021/01/14 06:01:55;;;;;;;1.38;0.40;;;;;;;13.36;74.09;100293.03;5011570;28;20029;-83
2021/01/14 06:04:22;;;;;;;0.30;0.30;;;;;;;13.51;73.58;100290.09;5011778;28;20437;-83
2021/01/14 06:06:51;;;;;;;0.55;0.55;;;;;;;13.48;73.81;100288.56;5020481;28;20038;-83
2021/01/14 06:09:20;;;;;;;0.38;0.38;;;;;;;13.49;73.75;100285.81;5031290;28;20033;-83
2021/01/14 06:11:47;;;;;;;0.30;0.30;;;;;;;13.39;74.34;100282.25;5031424;28;20026;-83
2021/01/14 06:14:24;;;;;;;0.17;0.17;;;;;;;13.53;74.21;100273.19;5031504;28;20026;-83
2021/01/14 06:16:50;;;;;;;0.20;0.20;;;;;;;13.58;73.43;100276.28;5031328;28;20104;-83
2021/01/14 06:19:16;;;;;;;0.20;0.20;;;;;;;13.31;74.17;100271.50;5030059;28;20132;-83
2021/01/14 06:21:49;;;;;;;0.20;0.20;;;;;;;13.27;74.45;100270.03;5020930;28;20113;-84
2021/01/14 06:24:18;;;;;;;1.27;0.35;;;;;;;13.44;74.27;100255.50;5011725;28;20029;-83
2021/01/14 06:26:45;;;;;;;0.20;0.20;;;;;;;13.25;74.67;100264.03;5012027;28;20549;-83
2021/01/14 06:29:17;;;;;;;0.20;0.20;;;;;;;13.41;73.83;100253.94;5011712;28;20025;-83
2021/01/14 06:31:43;;;;;;;0.20;0.20;;;;;;;13.00;75.47;100260.75;5011565;28;20532;-83
2021/01/14 06:34:08;;;;;;;0.82;0.20;;;;;;;13.16;74.68;100251.63;5011611;28;20105;-83
2021/01/14 06:36:39;;;;;;;1.38;0.30;;;;;;;13.27;74.69;100251.59;5011478;28;20026;-83
2021/01/14 06:39:12;;;;;;;2.22;0.35;;;;;;;12.38;77.78;100256.03;5011389;28;20396;-83
2021/01/14 06:41:40;;;;;;;0.30;0.30;;;;;;;13.05;75.53;100245.41;5011370;28;20105;-83
2021/01/14 06:44:07;;;;;;;0.82;0.40;;;;;;;13.20;74.77;100245.13;5011545;28;20503;-83
2021/01/14 06:46:35;;;;;;;0.52;0.30;;;;;;;12.94;75.77;100242.81;5012463;28;20033;-83
2021/01/14 06:49:14;;;;;;;0.75;0.52;;;;;;;12.62;76.69;100235.69;5015212;28;20152;-83
2021/01/14 06:52:01;;;;;;;4.82;0.50;;;;;;;12.68;76.30;100248.34;5014905;28;20017;-83
2021/01/14 06:54:27;;;;;;;1.13;0.90;;;;;;;12.62;77.00;100243.56;5014996;28;20019;-83
2021/01/14 06:57:07;;;;;;;1.33;0.98;;;;;;;12.51;77.10;100240.94;5014841;28;20033;-83
2021/01/14 06:59:37;;;;;;;2.70;1.05;;;;;;;12.82;75.89;100234.09;5014925;28;20551;-83
2021/01/14 07:02:05;;;;;;;2.50;1.40;;;;;;;12.91;75.71;100243.03;5014819;28;20080;-83
2021/01/14 07:04:34;;;;;;;2.05;1.58;;;;;;;12.89;75.30;100234.41;5014866;28;20030;-83
2021/01/14 07:07:19;;;;;;;2.53;1.52;;;;;;;12.98;75.17;100231.03;5014592;28;20034;-83
2021/01/14 07:10:03;;;;;;;2.10;1.70;;;;;;;13.02;75.52;100235.09;5014637;28;20036;-83
2021/01/14 07:12:32;;;;;;;4.32;2.30;;;;;;;12.99;75.11;100243.25;5015079;28;20017;-82
2021/01/14 07:15:04;;;;;;;5.30;2.10;;;;;;;12.81;75.37;100236.84;5014595;28;20101;-82
2021/01/14 07:17:34;;;;;;;;;;;;;;;13.02;74.94;100242.19;5015873;28;20537;-83
2021/01/14 07:20:02;;;;;;;4.20;2.92;;;;;;;12.78;75.45;100231.81;5033195;28;19960;-83
2021/01/14 07:22:33;;;;;;;3.72;3.10;;;;;;;12.80;75.14;100224.63;5034046;28;20184;-83
2021/01/14 07:25:03;;;;;;;6.15;3.30;;;;;;;12.76;75.41;100226.66;5033028;28;20418;-83
2021/01/14 07:27:30;;;;;;;4.38;3.47;;;;;;;12.79;75.59;100238.75;5034401;28;20654;-83
2021/01/14 07:29:56;;;;;;;9.10;3.30;;;;;;;13.05;74.75;100234.88;5033931;28;20026;-83
2021/01/14 07:32:54;;;;;;;4.07;2.90;;;;;;;13.02;74.56;100244.81;5033865;28;20025;-83
2021/01/14 07:35:45;;;;;;;5.00;3.53;;;;;;;13.00;74.99;100249.38;5033829;28;20021;-83
2021/01/14 07:38:12;;;;;;;4.97;4.00;;;;;;;12.96;74.82;100246.16;5033715;28;20091;-83
2021/01/14 07:40:40;;;;;;;8.13;5.03;;;;;;;12.59;76.09;100243.81;5033648;28;20021;-83
2021/01/14 07:43:08;;;;;;;8.10;5.55;;;;;;;12.80;75.14;100250.97;5033770;28;20036;-82
2021/01/14 07:45:34;;;;;;;7.53;6.00;;;;;;;12.68;75.78;100250.16;5033708;28;20044;-82
2021/01/14 07:48:23;;;;;;;10.88;6.65;;;;;;;12.70;75.35;100262.25;5036335;28;20475;-82
2021/01/14 07:50:51;;;;;;;9.57;5.93;;;;;;;12.96;74.71;100255.88;5032096;28;20038;-82
2021/01/14 07:53:17;;;;;;;15.05;7.60;;;;;;;12.60;75.47;100257.81;5028531;28;20030;-82
2021/01/14 07:55:43;;;;;;;14.20;7.50;;;;;;;12.76;75.40;100266.19;5016066;28;20379;-82
2021/01/14 07:58:21;;;;;;;12.77;7.82;;;;;;;12.84;74.78;100262.94;5029214;28;20026;-82
2021/01/14 08:01:10;;;;;;;12.02;8.30;;;;;;;12.88;74.88;100261.75;5020841;28;20487;-82
2021/01/14 08:03:40;;;;;;;11.52;7.45;;;;;;;12.84;74.98;100266.41;5025663;28;20060;-83
2021/01/14 08:06:34;;;;;;;15.30;8.70;;;;;;;12.82;75.00;100265.69;5023925;28;20560;-83
2021/01/14 08:09:05;;;;;;;13.02;8.00;;;;;;;12.31;76.54;100271.47;5025213;28;20076;-82
2021/01/14 08:11:31;;;;;;;12.85;9.60;;;;;;;12.88;74.89;100269.66;5039269;28;20060;-83
2021/01/14 08:14:17;;;;;;;13.82;8.98;;;;;;;12.81;74.91;100277.19;5014798;28;20075;-83
2021/01/14 08:16:52;;;;;;;15.18;9.07;;;;;;;12.78;74.82;100284.53;5024264;28;20025;-83
2021/01/14 08:19:32;;;;;;;16.85;10.35;;;;;;;12.48;75.65;100284.16;5020987;28;20061;-83
2021/01/14 08:21:57;;;;;;;12.25;8.60;;;;;;;12.79;75.11;100288.81;5016807;28;20041;-83
2021/01/14 08:24:38;;;;;;;13.73;9.68;;;;;;;12.57;75.99;100293.13;5013247;28;20579;-83
2021/01/14 08:27:15;;;;;;;19.65;10.23;;;;;;;12.91;74.50;100287.84;5026710;28;20034;-83
2021/01/14 08:29:50;;;;;;;12.95;9.15;;;;;;;12.76;75.36;100297.81;5029097;28;20042;-83
2021/01/14 08:32:28;;;;;;;12.82;8.70;;;;;;;12.91;74.26;100290.47;5019214;28;20026;-83
2021/01/14 08:34:54;;;;;;;15.13;10.70;;;;;;;12.74;75.61;100278.66;5014853;28;20113;-83
2021/01/14 08:37:48;;;;;;;15.68;10.65;;;;;;;12.97;74.59;100295.25;5024577;28;20026;-83
2021/01/14 08:40:16;;;;;;;14.88;10.13;;;;;;;12.45;76.04;100294.09;5016381;28;20052;-83
2021/01/14 08:42:44;;;;;;;13.77;10.25;;;;;;;12.62;75.45;100298.88;5034310;28;20065;-82
2021/01/14 08:45:10;;;;;;;13.60;9.75;;;;;;;12.70;75.89;100299.13;5033115;28;20464;-85
2021/01/14 08:47:58;;;;;;;14.68;10.38;;;;;;;13.00;74.72;100302.91;5033511;28;20029;-85
2021/01/14 08:50:34;;;;;;;12.43;9.95;;;;;;;13.07;74.50;100297.97;5029602;28;20018;-85
2021/01/14 08:53:01;;;;;;;16.70;9.15;;;;;;;12.67;75.06;100303.78;5030867;28;20080;-82
2021/01/14 08:55:28;;;;;;;14.20;8.65;;;;;;;12.84;75.02;100313.84;5033505;28;20033;-82
2021/01/14 08:57:55;;;;;;;12.23;8.95;;;;;;;12.97;74.27;100311.06;5031632;28;20048;-82
2021/01/14 09:00:21;;;;;;;15.43;9.02;;;;;;;12.73;74.84;100307.75;5030839;28;20132;-82
2021/01/14 09:02:46;;;;;;;12.20;8.80;;;;;;;12.70;74.88;100314.94;5041285;28;20136;-82
2021/01/14 09:05:12;;;;;;;12.35;8.57;;;;;;;12.68;75.20;100321.28;5030670;28;20025;-82
2021/01/14 09:07:38;;;;;;;14.70;8.98;;;;;;;12.74;74.98;100327.84;5049678;28;20025;-82
2021/01/14 09:10:04;;;;;;;11.52;8.75;;;;;;;12.95;74.03;100333.22;5027925;28;20086;-82
2021/01/14 09:12:29;;;;;;;11.82;8.10;;;;;;;13.03;74.22;100326.41;5029984;28;20048;-81
2021/01/14 09:14:55;;;;;;;14.82;8.00;;;;;;;12.75;74.99;100330.38;5034341;28;20028;-82
2021/01/14 09:17:20;;;;;;;10.98;7.13;;;;;;;12.82;74.78;100338.66;5021938;28;20022;-81
2021/01/14 09:19:55;;;;;;;10.75;6.85;;;;;;;13.08;74.01;100328.66;5031819;28;20032;-82
2021/01/14 09:22:26;;;;;;;12.70;6.70;;;;;;;13.12;73.37;100335.38;5012037;28;20431;-82
2021/01/14 09:24:52;;;;;;;;;;;;;;;13.09;73.67;100333.81;5022489;28;20033;-82
2021/01/14 09:27:18;;;;;;;8.70;5.60;;;;;;;12.98;74.17;100344.38;5030985;28;19917;-82
2021/01/14 09:29:44;;;;;;;8.80;5.20;;;;;;;12.94;73.69;100344.75;5031395;28;20447;-83
2021/01/14 09:32:13;;;;;;;6.93;4.10;;;;;;;12.62;74.96;100346.31;5030287;28;20021;-83
2021/01/14 09:34:39;;;;;;;9.60;3.55;;;;;;;12.38;75.65;100349.03;5027945;28;20475;-83
2021/01/14 09:37:15;;;;;;;4.78;2.80;;;;;;;12.59;74.85;100357.06;5020621;28;20061;-83
2021/01/14 09:39:41;;;;;;;4.10;2.55;;;;;;;12.57;74.82;100358.97;5028513;28;20033;-82
2021/01/14 09:42:07;;;;;;;5.82;2.15;;;;;;;12.97;73.29;100374.31;5022300;28;20033;-82
2021/01/14 09:44:33;;;;;;;2.95;1.60;;;;;;;12.79;74.55;100367.84;5028445;28;20025;-83
2021/01/14 09:46:59;;;;;;;3.85;1.40;;;;;;;13.07;73.24;100375.28;5029421;28;20109;-83
2021/01/14 09:49:26;;;;;;;1.45;0.90;;;;;;;12.89;73.94;100374.06;5029936;28;20080;-84
2021/01/14 09:51:52;;;;;;;1.33;0.70;;;;;;;13.13;72.66;100391.56;5032226;28;20483;-84
2021/01/14 09:54:18;;;;;;;2.97;0.80;;;;;;;12.98;72.98;100385.72;5032271;28;20036;-84
2021/01/14 09:56:53;;;;;;;1.00;0.40;;;;;;;12.95;73.27;100393.84;5021214;28;20104;-83
2021/01/14 09:59:26;;;;;;;1.33;0.52;;;;;;;12.90;72.92;100387.13;5027420;28;20032;-83
2021/01/14 10:02:00;;;;;;;3.42;0.57;;;;;;;12.94;73.02;100390.38;5028479;28;20029;-83
2021/01/14 10:04:27;;;;;;;0.40;0.30;;;;;;;12.89;73.83;100393.38;5031159;28;20032;-83
2021/01/14 10:06:57;;;;;;;2.10;0.40;;;;;;;13.00;72.86;100405.72;5026129;28;20506;-83
2021/01/14 10:09:23;;;;;;;0.90;0.40;;;;;;;13.05;72.97;100405.34;5030158;28;20021;-83
2021/01/14 10:11:50;;;;;;;2.47;0.50;;;;;;;12.99;73.20;100411.94;5043284;28;20083;-83
2021/01/14 10:14:20;;;;;;;2.03;0.30;;;;;;;12.74;74.03;100418.28;5015401;28;20396;-83
2021/01/14 10:16:47;;;;;;;1.25;0.30;;;;;;;12.58;74.36;100420.38;5035350;28;20084;-83
2021/01/14 10:19:19;;;;;;;0.60;0.20;;;;;;;12.87;73.29;100418.16;5017406;28;20030;-83
2021/01/14 10:21:46;;;;;;;0.43;0.22;;;;;;;12.93;72.87;100424.75;5042196;28;20059;-83
2021/01/14 10:24:25;;;;;;;5.63;0.50;;;;;;;12.86;72.94;100425.22;5055175;28;20025;-83
2021/01/14 10:26:51;;;;;;;2.88;0.50;;;;;;;12.94;72.40;100422.00;5040331;28;20116;-83
2021/01/14 10:29:30;;;;;;;2.00;0.40;;;;;;;13.04;72.46;100432.66;5035092;28;20064;-84
2021/01/14 10:32:02;;;;;;;1.27;0.30;;;;;;;13.02;72.89;100435.41;5048294;28;20036;-84
2021/01/14 10:34:38;;;;;;;0.60;0.25;;;;;;;13.22;72.18;100441.78;5038926;28;20548;-83
2021/01/14 10:37:03;;;;;;;5.68;0.60;;;;;;;13.04;72.96;100437.94;5045935;28;20139;-84
2021/01/14 10:39:39;;;;;;;1.45;0.40;;;;;;;13.17;71.52;100443.09;5035695;28;20547;-84
2021/01/14 10:42:32;;;;;;;4.32;0.30;;;;;;;13.05;72.80;100460.69;5037846;28;20025;-83
2021/01/14 10:45:08;;;;;;;1.70;0.30;;;;;;;12.63;73.71;100458.59;5034724;28;20029;-81
2021/01/14 10:47:39;;;;;;;2.35;0.40;;;;;;;12.99;72.66;100456.72;5033802;28;20025;-83
2021/01/14 10:50:26;;;;;;;0.70;0.30;;;;;;;13.13;72.52;100462.75;5033711;28;20022;-83
2021/01/14 10:52:59;;;;;;;0.65;0.40;;;;;;;12.97;71.82;100463.91;5032895;28;20113;-83
2021/01/14 10:55:28;;;;;;;2.80;0.60;;;;;;;12.86;73.15;100463.94;5038052;28;20392;-84
2021/01/14 10:57:55;;;;;;;4.28;0.70;;;;;;;12.56;73.81;100457.41;5031904;28;20475;-83
2021/01/14 11:00:23;;;;;;;3.75;0.40;;;;;;;13.02;72.88;100464.41;5031825;28;20462;-83
2021/01/14 11:03:09;;;;;;;3.45;0.40;;;;;;;12.90;72.43;100462.72;5019415;28;20145;-83
2021/01/14 11:05:55;;;;;;;1.52;0.30;;;;;;;12.74;73.10;100467.47;5027643;28;20026;-83
2021/01/14 11:08:24;;;;;;;1.65;0.40;;;;;;;12.77;73.06;100469.88;5022112;28;20025;-83
2021/01/14 11:11:04;;;;;;;1.50;0.28;;;;;;;12.84;72.97;100474.56;5039378;28;20033;-83
2021/01/14 11:13:38;;;;;;;0.63;0.40;;;;;;;12.67;72.77;100467.09;5033323;28;20024;-81
2021/01/14 11:16:05;;;;;;;1.80;0.40;;;;;;;13.06;71.77;100484.31;5037876;28;20025;-83
2021/01/14 11:18:34;;;;;;;1.70;0.40;;;;;;;12.63;72.91;100484.09;5024984;28;20464;-80
2021/01/14 11:20:59;;;;;;;1.00;0.50;;;;;;;12.87;72.43;100477.00;5032227;28;20483;-82
2021/01/14 11:23:24;;;;;;;1.55;0.30;;;;;;;13.04;71.71;100477.47;5036167;28;20036;-83
2021/01/14 11:25:50;;;;;;;0.32;0.28;;;;;;;12.85;71.62;100486.78;5031885;28;20522;-82
2021/01/14 11:28:15;;;;;;;0.30;0.30;;;;;;;12.79;71.20;100475.88;5019368;28;20048;-83
2021/01/14 11:30:40;;;;;;;2.33;0.43;;;;;;;12.53;72.96;100480.50;5021000;28;20049;-82
2021/01/14 11:33:06;;;;;;;2.22;0.30;;;;;;;12.59;71.98;100485.28;5036061;28;20519;-82
2021/01/14 11:35:31;;;;;;;1.30;0.40;;;;;;;13.03;70.46;100474.00;5028578;28;20065;-82
2021/01/14 11:37:56;;;;;;;3.42;0.52;;;;;;;13.09;70.42;100468.25;5018544;28;20230;-82